Middelkerke, Belgium
Current Conditions -  °F | °C
As of 7:20 AM on Tuesday 21 Oct 2014 (Local Time) from EBOS Reporting Station
Broken Clouds Broken Clouds  
Wind Chill: 54°   Ceiling: 2200
Heat Index: 54°   Visibility: 6mi
Dew Point: 50°   Wind: 16mph
Humidity: 88%   Direction: 200°SSW
Pressure: 29.71"   Gusts: NA
Location:  51.19°N, 2.82°E
Report Text: EBOS 210520Z 20014KT 9999 FEW009 BKN022 12/10 Q1006 TEMPO 21020G30KT 3000 RA BKN009
Loading
Personal Weather Stations






























Interactive Weather Map
Tropical Storm Tracking
New forecast layout! Learn more

10-Day Weather Forecast

Advertisements
Track Severe Weather on mobile